Terminal Aerodrome Forecast
Issued by NWS

Current Version | Previous Version | Text Only | Print | Product List | Glossary On
Versions: 1 2 3 4 5 6 7 8 9 10 11 12 13 14 15 16 17 18
000
FTAK31 PAJN 151148
TAFAJN
TAF
PAJN 151148Z 1512/1612 08007KT P6SM -SHRA FEW011 BKN035 OVC050
     FM151900 10009KT P6SM VCSH SCT030 BKN050 OVC070
     FM160000 10007KT P6SM OVC070
     FM160600 10010KT P6SM VCSH BKN030 OVC050
     FM160900 11020G30KT 5SM -RA OVC030=

USA.gov is the U.S. government's official web portal to all federal, state and local government web resources and services.